createdAt,value
2017-12-03T00:02:35.238Z,1018.68
2017-12-03T00:07:31.013Z,1018.62
2017-12-03T00:12:26.655Z,1018.48
2017-12-03T00:17:22.358Z,1018.47
2017-12-03T00:22:18.083Z,1018.40
2017-12-03T00:27:13.782Z,1018.49
2017-12-03T00:32:10.807Z,1018.39
2017-12-03T00:37:06.465Z,1018.43
2017-12-03T00:42:02.115Z,1018.38
2017-12-03T00:46:57.888Z,1018.26
2017-12-03T00:51:53.649Z,1018.22
2017-12-03T00:56:49.155Z,1018.25
2017-12-03T01:01:45.597Z,1018.24
2017-12-03T01:06:41.168Z,1018.16
2017-12-03T01:11:36.950Z,1018.08
2017-12-03T01:16:33.328Z,1018.04
2017-12-03T01:21:28.885Z,1018.04
2017-12-03T01:26:24.491Z,1017.90
2017-12-03T01:31:19.725Z,1018.00
2017-12-03T01:36:16.434Z,1017.83
2017-12-03T01:41:11.860Z,1017.90
2017-12-03T01:46:09.247Z,1017.86
2017-12-03T01:51:04.637Z,1017.80
2017-12-03T01:56:01.285Z,1017.83
2017-12-03T02:00:56.698Z,1017.83
2017-12-03T02:05:53.009Z,1017.79
2017-12-03T02:10:49.781Z,1017.84
2017-12-03T02:15:45.643Z,1017.71
2017-12-03T02:20:42.777Z,1017.65
2017-12-03T02:25:38.342Z,1017.73
2017-12-03T02:30:34.961Z,1017.57
2017-12-03T02:35:30.326Z,1017.54
2017-12-03T02:40:27.026Z,1017.45
2017-12-03T02:45:23.216Z,1017.48
2017-12-03T02:50:18.452Z,1017.36
2017-12-03T02:55:13.972Z,1017.40
2017-12-03T03:00:11.298Z,1017.27
2017-12-03T03:05:06.513Z,1017.23
2017-12-03T03:10:02.046Z,1017.10
2017-12-03T03:14:58.530Z,1017.08
2017-12-03T03:19:55.658Z,1016.98
2017-12-03T03:24:51.902Z,1017.02
2017-12-03T03:29:47.724Z,1016.88
2017-12-03T03:34:42.947Z,1016.80
2017-12-03T03:39:38.616Z,1016.78
2017-12-03T03:44:34.404Z,1016.74
2017-12-03T03:49:29.912Z,1016.79
2017-12-03T03:54:25.598Z,1016.79
2017-12-03T03:59:22.176Z,1016.84
2017-12-03T04:04:17.694Z,1016.72
2017-12-03T04:09:13.228Z,1016.78
2017-12-03T04:14:09.859Z,1016.81
2017-12-03T04:19:06.240Z,1016.74
2017-12-03T04:24:01.635Z,1016.63
2017-12-03T04:28:58.957Z,1016.59
2017-12-03T04:33:54.291Z,1016.60
2017-12-03T04:38:51.052Z,1016.46
2017-12-03T04:43:48.164Z,1016.60
2017-12-03T04:48:43.474Z,1016.51
2017-12-03T04:53:38.847Z,1016.51
2017-12-03T04:58:34.387Z,1016.47
2017-12-03T05:03:30.063Z,1016.49
2017-12-03T05:08:25.758Z,1016.39
2017-12-03T05:13:21.336Z,1016.41
2017-12-03T05:18:17.705Z,1016.43
2017-12-03T05:23:14.410Z,1016.34
2017-12-03T05:28:10.464Z,1016.32
2017-12-03T05:33:06.120Z,1016.29
2017-12-03T05:38:02.626Z,1016.27
2017-12-03T05:42:58.092Z,1016.23
2017-12-03T05:47:53.896Z,1016.26
2017-12-03T05:52:49.669Z,1016.27
2017-12-03T05:57:47.312Z,1016.25
2017-12-03T06:02:43.160Z,1016.15
2017-12-03T06:07:39.582Z,1016.23
2017-12-03T06:12:35.204Z,1016.24
2017-12-03T06:17:30.792Z,1016.16
2017-12-03T06:22:26.774Z,1016.12
2017-12-03T06:27:23.402Z,1015.99
2017-12-03T06:32:18.732Z,1016.09
2017-12-03T06:37:15.268Z,1016.09
2017-12-03T06:42:11.398Z,1016.06
2017-12-03T06:47:07.209Z,1016.15
2017-12-03T06:52:02.861Z,1016.11
2017-12-03T06:56:58.454Z,1016.12
2017-12-03T07:01:55.879Z,1016.18
2017-12-03T07:06:51.298Z,1016.13
2017-12-03T07:11:46.945Z,1016.15
2017-12-03T07:16:42.607Z,1016.19
2017-12-03T07:21:39.185Z,1016.30
2017-12-03T07:26:34.493Z,1016.12
2017-12-03T07:31:30.189Z,1016.27
2017-12-03T07:36:26.059Z,1016.14
2017-12-03T07:41:22.798Z,1016.21
2017-12-03T07:46:18.020Z,1016.17
2017-12-03T07:51:13.335Z,1016.24
2017-12-03T07:56:09.373Z,1016.28
2017-12-03T08:01:05.699Z,1016.30
2017-12-03T08:06:01.429Z,1016.29
2017-12-03T08:10:57.021Z,1016.24
2017-12-03T08:15:54.142Z,1016.31
2017-12-03T08:20:49.602Z,1016.22
2017-12-03T08:25:45.153Z,1016.23
2017-12-03T08:30:42.110Z,1016.21
2017-12-03T08:35:37.658Z,1016.25
2017-12-03T08:40:34.418Z,1016.13
2017-12-03T08:45:29.638Z,1016.14
2017-12-03T08:50:26.431Z,1016.14
2017-12-03T08:55:21.749Z,1016.12
2017-12-03T09:00:17.472Z,1016.19
2017-12-03T09:05:12.842Z,1016.17
2017-12-03T09:10:09.628Z,1016.24
2017-12-03T09:15:04.948Z,1016.22
2017-12-03T09:20:02.340Z,1016.17
2017-12-03T09:24:58.723Z,1016.19
2017-12-03T09:29:54.036Z,1016.17
2017-12-03T09:34:50.718Z,1016.10
2017-12-03T09:39:45.975Z,1016.12
2017-12-03T09:44:43.029Z,1016.04
2017-12-03T09:49:38.555Z,1016.22
2017-12-03T09:54:35.654Z,1016.23
2017-12-03T09:59:30.655Z,1016.19
2017-12-03T10:04:26.243Z,1016.24
2017-12-03T10:09:22.023Z,1016.26
2017-12-03T10:14:17.698Z,1016.20
2017-12-03T10:19:13.375Z,1016.24
2017-12-03T10:24:10.072Z,1016.29
2017-12-03T10:29:05.462Z,1016.13
2017-12-03T10:34:01.493Z,1016.04
2017-12-03T10:38:57.180Z,1015.96
2017-12-03T10:43:53.165Z,1015.95
2017-12-03T10:48:48.790Z,1015.85
2017-12-03T10:53:45.231Z,1015.89
2017-12-03T10:58:40.713Z,1015.91
2017-12-03T11:03:36.780Z,1015.82
2017-12-03T11:08:32.357Z,1015.73
2017-12-03T11:13:28.054Z,1015.59
2017-12-03T11:18:24.723Z,1015.68
2017-12-03T11:23:20.269Z,1015.49
2017-12-03T11:28:16.045Z,1015.55
2017-12-03T11:33:11.717Z,1015.45
2017-12-03T11:38:07.393Z,1015.60
2017-12-03T11:43:03.030Z,1015.50
2017-12-03T11:47:58.429Z,1015.46
2017-12-03T11:52:54.255Z,1015.47
2017-12-03T11:57:49.883Z,1015.48
2017-12-03T12:02:45.678Z,1015.30
2017-12-03T12:07:42.305Z,1015.16
2017-12-03T12:12:38.865Z,1015.11
2017-12-03T12:17:34.160Z,1015.10
2017-12-03T12:22:30.817Z,1015.04
2017-12-03T12:27:26.120Z,1014.97
2017-12-03T12:32:23.574Z,1014.94
2017-12-03T12:37:19.365Z,1014.94
2017-12-03T12:42:15.921Z,1014.95
2017-12-03T12:47:11.221Z,1014.94
2017-12-03T12:52:06.798Z,1014.85
2017-12-03T12:57:03.588Z,1014.81
2017-12-03T13:02:00.065Z,1014.78
2017-12-03T13:06:57.196Z,1014.85
2017-12-03T13:11:52.433Z,1014.87
2017-12-03T13:16:48.262Z,1014.82
2017-12-03T13:21:43.885Z,1014.81
2017-12-03T13:26:39.500Z,1014.73
2017-12-03T13:31:36.160Z,1014.76
2017-12-03T13:36:31.886Z,1014.77
2017-12-03T13:41:27.473Z,1014.79
2017-12-03T13:46:23.343Z,1014.90
2017-12-03T13:51:19.011Z,1014.87
2017-12-03T13:56:14.906Z,1014.89
2017-12-03T14:01:10.410Z,1014.91
2017-12-03T14:06:06.086Z,1014.92
2017-12-03T14:11:02.887Z,1014.99
2017-12-03T14:15:59.822Z,1014.94
2017-12-03T14:20:55.038Z,1015.07
2017-12-03T14:25:50.669Z,1015.00
2017-12-03T14:30:47.392Z,1014.98
2017-12-03T14:35:42.523Z,1015.09
2017-12-03T14:40:38.322Z,1015.18
2017-12-03T14:45:33.892Z,1015.20
2017-12-03T14:50:31.038Z,1015.26
2017-12-03T14:55:26.416Z,1015.33
2017-12-03T15:00:23.210Z,1015.37
2017-12-03T15:05:19.710Z,1015.37
2017-12-03T15:10:15.072Z,1015.26
2017-12-03T15:15:11.690Z,1015.31
2017-12-03T15:20:07.171Z,1015.37
2017-12-03T15:25:02.649Z,1015.33
2017-12-03T15:29:58.474Z,1015.29
2017-12-03T15:34:55.112Z,1015.30
2017-12-03T15:39:50.422Z,1015.29
2017-12-03T15:44:45.478Z,1015.29
2017-12-03T15:49:41.197Z,1015.39
2017-12-03T15:54:37.271Z,1015.47
2017-12-03T15:59:32.910Z,1015.57
2017-12-03T16:04:28.419Z,1015.68
2017-12-03T16:09:24.210Z,1015.72
2017-12-03T16:14:19.955Z,1015.73
2017-12-03T16:19:15.683Z,1015.73
2017-12-03T16:24:12.283Z,1015.71
2017-12-03T16:29:07.708Z,1015.59
2017-12-03T16:34:03.364Z,1015.73
2017-12-03T16:38:58.972Z,1015.78
2017-12-03T16:43:54.784Z,1015.83
2017-12-03T16:48:50.570Z,1015.86
2017-12-03T16:53:46.366Z,1015.90
2017-12-03T16:58:42.046Z,1015.86
2017-12-03T17:03:37.920Z,1015.92
2017-12-03T17:08:33.986Z,1015.90
2017-12-03T17:13:29.445Z,1015.93
2017-12-03T17:18:25.318Z,1015.89
2017-12-03T17:23:21.008Z,1015.98
2017-12-03T17:28:16.866Z,1015.91
2017-12-03T17:33:13.530Z,1015.89
2017-12-03T17:38:09.990Z,1015.77
2017-12-03T17:43:05.106Z,1015.93
2017-12-03T17:48:01.866Z,1015.91
2017-12-03T17:52:57.734Z,1016.14
2017-12-03T17:57:54.350Z,1016.12
2017-12-03T18:02:50.490Z,1016.19
2017-12-03T18:07:46.037Z,1016.16
2017-12-03T18:12:41.820Z,1016.09
2017-12-03T18:17:38.549Z,1016.18
2017-12-03T18:22:33.938Z,1016.16
2017-12-03T18:27:30.518Z,1016.35
2017-12-03T18:32:26.116Z,1016.37
2017-12-03T18:37:22.016Z,1016.45
2017-12-03T18:42:18.382Z,1016.33
2017-12-03T18:47:14.090Z,1016.44
2017-12-03T18:52:09.762Z,1016.33
2017-12-03T18:57:05.393Z,1016.34
2017-12-03T19:02:00.868Z,1016.29
2017-12-03T19:06:56.585Z,1016.38
2017-12-03T19:11:52.316Z,1016.43
2017-12-03T19:16:48.099Z,1016.35
2017-12-03T19:21:44.924Z,1016.50
2017-12-03T19:26:40.760Z,1016.46
2017-12-03T19:31:37.536Z,1016.60
2017-12-03T19:36:34.038Z,1016.56
2017-12-03T19:41:30.541Z,1016.51
2017-12-03T19:46:25.672Z,1016.56
2017-12-03T19:51:21.739Z,1016.44
2017-12-03T19:56:17.498Z,1016.45
2017-12-03T20:01:14.281Z,1016.53
2017-12-03T20:06:09.737Z,1016.53
2017-12-03T20:11:06.498Z,1016.74
2017-12-03T20:16:01.900Z,1016.65
2017-12-03T20:20:57.537Z,1016.73
2017-12-03T20:25:53.421Z,1016.82
2017-12-03T20:30:49.563Z,1016.74
2017-12-03T20:35:45.027Z,1016.70
2017-12-03T20:40:40.818Z,1016.75
2017-12-03T20:45:37.400Z,1016.80
2017-12-03T20:50:32.796Z,1016.80
2017-12-03T20:55:28.608Z,1016.84
2017-12-03T21:00:25.757Z,1016.88
2017-12-03T21:05:21.223Z,1016.85
2017-12-03T21:10:17.328Z,1016.82
2017-12-03T21:15:13.203Z,1016.81
2017-12-03T21:20:08.922Z,1016.92
2017-12-03T21:25:04.726Z,1016.92
2017-12-03T21:30:00.562Z,1016.84
2017-12-03T21:34:56.598Z,1016.89
2017-12-03T21:39:52.950Z,1016.95
2017-12-03T21:44:48.646Z,1017.10
2017-12-03T21:49:44.699Z,1016.96
2017-12-03T21:54:41.258Z,1017.07
2017-12-03T21:59:36.647Z,1017.06
2017-12-03T22:04:32.973Z,1017.06
2017-12-03T22:09:29.645Z,1017.09
2017-12-03T22:14:26.645Z,1017.04
2017-12-03T22:19:22.093Z,1017.04
2017-12-03T22:24:18.491Z,1017.03
2017-12-03T22:29:14.915Z,1017.09
2017-12-03T22:34:11.661Z,1017.19
2017-12-03T22:39:07.208Z,1017.26
2017-12-03T22:44:03.205Z,1017.37
2017-12-03T22:48:59.667Z,1017.40
2017-12-03T22:53:55.298Z,1017.38
2017-12-03T22:58:51.171Z,1017.45
2017-12-03T23:03:47.106Z,1017.42
2017-12-03T23:08:42.504Z,1017.38
2017-12-03T23:13:39.148Z,1017.47
2017-12-03T23:18:35.096Z,1017.53
2017-12-03T23:23:30.820Z,1017.67
2017-12-03T23:28:27.466Z,1017.60
2017-12-03T23:33:23.056Z,1017.69
2017-12-03T23:38:19.750Z,1017.66
2017-12-03T23:43:15.072Z,1017.66
2017-12-03T23:48:10.992Z,1017.60
2017-12-03T23:53:06.799Z,1017.51
2017-12-03T23:58:02.742Z,1017.49
